TimePDT,TemperatureF,Dew PointF,Humidity,Sea Level PressureIn,VisibilityMPH,Wind Direction,Wind SpeedMPH,Gust SpeedMPH,PrecipitationIn,Events,Conditions,WindDirDegrees,DateUTC
12:30 AM,57.2,53.6,88,30.23,10.0,Calm,Calm,-,N/A,,Overcast,0,2012-10-13 07:30:00
12:53 AM,55.9,54.0,93,30.24,10.0,Calm,Calm,-,N/A,,Overcast,0,2012-10-13 07:53:00
1:53 AM,57.0,54.0,89,30.25,10.0,Calm,Calm,-,N/A,,Overcast,0,2012-10-13 08:53:00
2:33 AM,55.4,53.6,94,30.25,10.0,Calm,Calm,-,N/A,,Scattered Clouds,0,2012-10-13 09:33:00
2:53 AM,54.0,53.1,97,30.24,10.0,Calm,Calm,-,N/A,,Clear,0,2012-10-13 09:53:00
3:53 AM,53.1,51.1,93,30.25,10.0,Calm,Calm,-,N/A,,Clear,0,2012-10-13 10:53:00
4:53 AM,51.1,48.9,92,30.25,10.0,Calm,Calm,-,N/A,,Clear,0,2012-10-13 11:53:00
5:53 AM,50.0,48.0,93,30.26,10.0,Calm,Calm,-,N/A,,Clear,0,2012-10-13 12:53:00
6:53 AM,48.9,48.0,97,30.27,10.0,WNW,5.8,-,N/A,,Clear,300,2012-10-13 13:53:00
7:53 AM,50.0,48.0,93,30.27,10.0,Calm,Calm,-,N/A,,Clear,0,2012-10-13 14:53:00
8:53 AM,54.0,50.0,86,30.30,10.0,Calm,Calm,-,0.01,,Clear,0,2012-10-13 15:53:00
9:53 AM,59.0,50.0,72,30.30,10.0,Calm,Calm,-,N/A,,Clear,0,2012-10-13 16:53:00
10:53 AM,64.9,51.1,61,30.29,10.0,Calm,Calm,-,N/A,,Clear,0,2012-10-13 17:53:00
11:53 AM,66.9,51.1,57,30.27,10.0,Calm,Calm,-,N/A,,Clear,0,2012-10-13 18:53:00
1:53 PM,71.1,52.0,51,30.22,10.0,SSW,9.2,-,N/A,,Clear,210,2012-10-13 20:53:00
2:53 PM,71.1,51.1,49,30.19,10.0,WSW,9.2,-,N/A,,Clear,250,2012-10-13 21:53:00
3:53 PM,69.1,50.0,51,30.18,10.0,WSW,10.4,-,N/A,,Clear,240,2012-10-13 22:53:00
5:53 PM,66.9,52.0,59,30.17,10.0,West,5.8,-,N/A,,Clear,270,2012-10-14 00:53:00
7:53 PM,60.1,53.1,78,30.18,10.0,Calm,Calm,-,N/A,,Clear,0,2012-10-14 02:53:00
10:53 PM,55.9,52.0,87,30.20,10.0,Calm,Calm,-,N/A,,Clear,0,2012-10-14 05:53:00
11:53 PM,55.9,52.0,87,30.19,10.0,NW,4.6,-,N/A,,Clear,310,2012-10-14 06:53:00